createdAt,value
2018-02-16T00:02:19.556Z,19.17
2018-02-16T00:04:49.146Z,18.07
2018-02-16T00:07:18.958Z,19.00
2018-02-16T00:09:48.399Z,19.07
2018-02-16T00:12:18.522Z,20.03
2018-02-16T00:14:48.015Z,19.30
2018-02-16T00:17:17.805Z,19.17
2018-02-16T00:19:47.844Z,19.47
2018-02-16T00:22:18.087Z,18.87
2018-02-16T00:24:47.543Z,17.83
2018-02-16T00:27:17.661Z,18.70
2018-02-16T00:29:47.236Z,18.80
2018-02-16T00:32:16.555Z,19.33
2018-02-16T00:34:46.079Z,18.57
2018-02-16T00:37:15.448Z,19.73
2018-02-16T00:39:45.259Z,19.80
2018-02-16T00:42:15.992Z,19.93
2018-02-16T00:44:45.583Z,19.70
2018-02-16T00:47:15.106Z,20.20
2018-02-16T00:49:44.762Z,20.63
2018-02-16T00:52:14.886Z,20.87
2018-02-16T00:54:44.287Z,20.50
2018-02-16T00:57:13.736Z,20.13
2018-02-16T00:59:43.111Z,19.63
2018-02-16T01:02:12.752Z,19.83
2018-02-16T01:04:42.182Z,20.73
2018-02-16T01:07:11.709Z,18.97
2018-02-16T01:09:41.292Z,18.57
2018-02-16T01:12:11.164Z,21.07
2018-02-16T01:14:40.478Z,19.47
2018-02-16T01:17:09.926Z,20.07
2018-02-16T01:19:39.525Z,18.00
2018-02-16T01:22:08.932Z,19.40
2018-02-16T01:24:38.412Z,19.27
2018-02-16T01:27:07.835Z,18.47
2018-02-16T01:29:45.122Z,18.00
2018-02-16T01:32:14.448Z,18.17
2018-02-16T01:34:44.148Z,19.37
2018-02-16T01:37:13.899Z,19.17
2018-02-16T01:39:43.496Z,18.03
2018-02-16T01:42:12.862Z,19.17
2018-02-16T01:44:42.199Z,19.00
2018-02-16T01:47:11.662Z,20.47
2018-02-16T01:49:58.618Z,20.90
2018-02-16T01:52:28.371Z,19.67
2018-02-16T01:54:58.729Z,20.17
2018-02-16T01:57:28.106Z,21.67
2018-02-16T01:59:59.288Z,20.30
2018-02-16T02:02:28.871Z,19.00
2018-02-16T02:04:58.458Z,19.30
2018-02-16T02:07:27.722Z,18.13
2018-02-16T02:09:57.248Z,18.47
2018-02-16T02:12:26.778Z,18.57
2018-02-16T02:14:56.237Z,17.97
2018-02-16T02:17:25.751Z,18.70
2018-02-16T02:19:55.234Z,19.03
2018-02-16T02:22:24.786Z,19.20
2018-02-16T02:24:55.050Z,18.77
2018-02-16T02:27:24.384Z,19.13
2018-02-16T02:29:53.795Z,18.33
2018-02-16T02:32:23.954Z,18.23
2018-02-16T02:34:53.597Z,19.03
2018-02-16T02:37:23.863Z,19.03
2018-02-16T02:39:53.418Z,18.63
2018-02-16T02:42:31.706Z,18.20
2018-02-16T02:45:01.268Z,18.13
2018-02-16T02:47:30.627Z,18.90
2018-02-16T02:50:00.113Z,18.80
2018-02-16T02:52:30.306Z,17.73
2018-02-16T02:54:59.757Z,17.20
2018-02-16T02:57:29.098Z,17.93
2018-02-16T02:59:58.511Z,17.60
2018-02-16T03:02:27.839Z,17.47
2018-02-16T03:04:57.285Z,17.63
2018-02-16T03:07:27.140Z,17.60
2018-02-16T03:09:56.691Z,19.90
2018-02-16T03:12:27.668Z,18.73
2018-02-16T03:14:57.194Z,17.97
2018-02-16T03:17:26.556Z,18.17
2018-02-16T03:19:55.944Z,18.47
2018-02-16T03:22:25.807Z,18.07
2018-02-16T03:24:55.146Z,19.63
2018-02-16T03:27:24.683Z,18.57
2018-02-16T03:29:54.134Z,18.83
2018-02-16T03:32:23.465Z,19.07
2018-02-16T03:34:53.215Z,17.87
2018-02-16T03:37:22.582Z,18.40
2018-02-16T03:39:51.926Z,18.17
2018-02-16T03:42:22.180Z,18.27
2018-02-16T03:44:51.956Z,17.53
2018-02-16T03:47:21.399Z,18.70
2018-02-16T03:49:51.675Z,17.90
2018-02-16T03:52:21.055Z,18.67
2018-02-16T03:54:51.021Z,17.60
2018-02-16T03:57:20.910Z,17.60
2018-02-16T03:59:50.483Z,18.70
2018-02-16T04:02:20.398Z,20.17
2018-02-16T04:04:49.879Z,18.83
2018-02-16T04:07:19.310Z,19.23
2018-02-16T04:09:49.010Z,19.17
2018-02-16T04:12:18.370Z,21.40
2018-02-16T04:14:48.556Z,20.63
2018-02-16T04:17:17.939Z,20.53
2018-02-16T04:19:47.287Z,19.30
2018-02-16T04:22:16.843Z,20.40
2018-02-16T04:24:46.220Z,20.30
2018-02-16T04:27:16.208Z,20.57
2018-02-16T04:29:46.355Z,19.43
2018-02-16T04:32:15.667Z,20.80
2018-02-16T04:37:46.347Z,20.40
2018-02-16T04:40:15.928Z,20.40
2018-02-16T04:42:45.282Z,21.20
2018-02-16T04:45:14.667Z,21.07
2018-02-16T04:47:46.826Z,20.47
2018-02-16T04:50:16.116Z,20.77
2018-02-16T04:52:45.676Z,22.40
2018-02-16T04:55:15.018Z,20.50
2018-02-16T04:57:44.496Z,20.93
2018-02-16T05:00:13.998Z,20.93
2018-02-16T05:02:43.360Z,20.87
2018-02-16T05:05:12.647Z,21.33
2018-02-16T05:07:42.337Z,21.20
2018-02-16T05:10:11.685Z,20.33
2018-02-16T05:12:41.386Z,20.83
2018-02-16T05:15:10.825Z,21.67
2018-02-16T05:17:40.458Z,22.10
2018-02-16T05:20:10.665Z,23.00
2018-02-16T05:22:40.205Z,22.93
2018-02-16T05:25:10.173Z,22.80
2018-02-16T05:27:40.028Z,20.93
2018-02-16T05:30:11.585Z,22.93
2018-02-16T05:32:41.016Z,20.67
2018-02-16T05:35:11.056Z,22.47
2018-02-16T05:37:40.414Z,21.20
2018-02-16T05:40:10.275Z,21.30
2018-02-16T05:57:23.913Z,21.83
2018-02-16T05:59:53.409Z,23.73
2018-02-16T06:02:23.930Z,22.77
2018-02-16T06:04:53.619Z,22.97
2018-02-16T06:07:23.021Z,23.27
2018-02-16T06:09:54.207Z,23.53
2018-02-16T06:12:24.504Z,22.73
2018-02-16T06:14:54.771Z,21.73
2018-02-16T06:17:25.283Z,21.30
2018-02-16T06:19:54.746Z,20.87
2018-02-16T06:22:24.395Z,21.73
2018-02-16T06:24:53.916Z,21.93
2018-02-16T06:27:24.311Z,21.13
2018-02-16T06:29:56.170Z,20.83
2018-02-16T06:32:26.979Z,20.97
2018-02-16T06:34:56.763Z,19.63
2018-02-16T06:37:27.238Z,20.73
2018-02-16T06:39:56.797Z,21.97
2018-02-16T06:42:26.220Z,19.30
2018-02-16T06:44:55.770Z,20.73
2018-02-16T06:47:25.160Z,21.97
2018-02-16T06:49:54.902Z,21.50
2018-02-16T06:52:24.978Z,20.97
2018-02-16T06:54:55.592Z,20.07
2018-02-16T06:57:25.517Z,21.63
2018-02-16T06:59:55.772Z,21.40
2018-02-16T07:02:25.225Z,20.87
2018-02-16T07:04:54.670Z,20.27
2018-02-16T07:07:34.998Z,22.50
2018-02-16T07:10:05.372Z,22.10
2018-02-16T07:12:34.699Z,22.60
2018-02-16T07:15:04.289Z,22.00
2018-02-16T07:17:34.352Z,20.63
2018-02-16T07:20:03.899Z,21.97
2018-02-16T07:22:37.252Z,21.20
2018-02-16T07:25:06.907Z,21.83
2018-02-16T07:27:36.675Z,22.17
2018-02-16T07:30:07.194Z,21.77
2018-02-16T07:32:36.999Z,22.40
2018-02-16T07:35:06.557Z,24.67
2018-02-16T07:37:37.159Z,23.27
2018-02-16T07:40:06.796Z,24.87
2018-02-16T07:42:36.530Z,25.63
2018-02-16T07:45:06.012Z,26.07
2018-02-16T07:47:35.704Z,24.53
2018-02-16T07:50:06.141Z,23.90
2018-02-16T07:52:37.201Z,24.17
2018-02-16T07:55:08.317Z,25.93
2018-02-16T07:57:37.702Z,24.50
2018-02-16T08:00:08.409Z,24.23
2018-02-16T08:02:38.253Z,24.70
2018-02-16T08:05:08.569Z,26.17
2018-02-16T08:07:38.992Z,25.93
2018-02-16T08:10:08.891Z,24.80
2018-02-16T08:12:38.510Z,24.00
2018-02-16T08:15:16.137Z,25.63
2018-02-16T08:17:46.028Z,25.43
2018-02-16T08:20:16.237Z,24.77
2018-02-16T08:22:46.161Z,25.77
2018-02-16T08:25:15.844Z,24.27
2018-02-16T08:27:46.409Z,24.73
2018-02-16T08:30:16.404Z,25.40
2018-02-16T08:32:46.393Z,25.30
2018-02-16T08:35:16.098Z,24.40
2018-02-16T08:37:46.809Z,24.33
2018-02-16T08:40:17.557Z,25.30
2018-02-16T08:42:48.146Z,24.53
2018-02-16T08:45:19.565Z,24.97
2018-02-16T08:47:49.283Z,24.07
2018-02-16T08:50:20.338Z,26.30
2018-02-16T08:52:50.819Z,26.77
2018-02-16T08:55:21.390Z,27.30
2018-02-16T08:57:51.981Z,25.60
2018-02-16T09:00:22.671Z,25.50
2018-02-16T09:02:52.212Z,25.20
2018-02-16T09:05:22.174Z,26.37
2018-02-16T09:07:52.356Z,25.07
2018-02-16T09:10:22.757Z,24.10
2018-02-16T09:12:52.584Z,25.00
2018-02-16T09:15:22.340Z,24.43
2018-02-16T09:17:58.368Z,21.30
2018-02-16T09:20:32.643Z,23.93
2018-02-16T09:23:04.186Z,23.57
2018-02-16T09:32:10.688Z,20.17
2018-02-16T09:45:17.636Z,21.13
2018-02-16T09:50:53.693Z,22.33
2018-02-16T10:12:53.998Z,28.93
2018-02-16T10:15:23.404Z,20.30
2018-02-16T10:17:52.746Z,22.27
2018-02-16T10:20:22.663Z,21.90
2018-02-16T10:22:52.246Z,19.43
2018-02-16T10:25:21.986Z,21.03
2018-02-16T10:27:51.558Z,21.70
2018-02-16T10:30:21.328Z,21.00
2018-02-16T10:32:50.766Z,21.47
2018-02-16T10:35:20.441Z,20.83
2018-02-16T10:37:50.334Z,18.03
2018-02-16T10:40:20.147Z,18.93
2018-02-16T10:42:49.764Z,19.80
2018-02-16T10:45:19.464Z,19.07
2018-02-16T10:47:49.142Z,19.30
2018-02-16T10:50:18.511Z,19.40
2018-02-16T10:52:48.073Z,18.40
2018-02-16T10:55:18.052Z,18.27
2018-02-16T10:57:47.923Z,17.83
2018-02-16T11:00:18.942Z,19.17
2018-02-16T11:02:54.047Z,16.53
2018-02-16T11:05:23.951Z,17.90
2018-02-16T11:07:53.642Z,18.50
2018-02-16T11:10:23.706Z,20.37
2018-02-16T11:13:08.595Z,19.03
2018-02-16T11:16:03.192Z,18.93
2018-02-16T11:18:33.453Z,18.57
2018-02-16T11:21:03.327Z,18.37
2018-02-16T11:23:59.647Z,16.83
2018-02-16T11:26:35.697Z,16.73
2018-02-16T11:29:07.078Z,17.37
2018-02-16T11:31:40.234Z,16.33
2018-02-16T11:34:13.093Z,15.27
2018-02-16T11:36:45.437Z,17.17
2018-02-16T11:39:20.111Z,16.00
2018-02-16T11:41:51.519Z,16.30
2018-02-16T11:44:21.032Z,17.27
2018-02-16T11:46:52.915Z,17.03
2018-02-16T11:49:25.445Z,17.53
2018-02-16T11:51:55.044Z,18.37
2018-02-16T11:54:24.765Z,16.67
2018-02-16T11:56:55.167Z,19.50
2018-02-16T11:59:24.573Z,17.73
2018-02-16T12:01:57.718Z,17.43
2018-02-16T12:04:35.138Z,17.13
2018-02-16T12:09:54.509Z,16.33
2018-02-16T12:12:24.056Z,17.00
2018-02-16T12:14:53.698Z,17.90
2018-02-16T12:17:24.443Z,17.67
2018-02-16T12:19:55.534Z,19.77
2018-02-16T12:22:24.997Z,18.57
2018-02-16T12:24:55.211Z,19.20
2018-02-16T12:27:24.988Z,18.10
2018-02-16T12:43:37.349Z,18.03
2018-02-16T12:46:14.568Z,16.97
2018-02-16T12:48:44.138Z,17.17
2018-02-16T12:51:20.854Z,19.93
2018-02-16T12:53:51.171Z,19.77
2018-02-16T12:56:21.209Z,19.03
2018-02-16T12:58:51.113Z,20.23
2018-02-16T13:01:22.544Z,19.90
2018-02-16T13:03:52.199Z,19.23
2018-02-16T13:06:22.104Z,19.70
2018-02-16T13:08:53.708Z,19.73
2018-02-16T13:11:25.188Z,20.27
2018-02-16T13:14:02.358Z,20.67
2018-02-16T13:16:31.977Z,19.47
2018-02-16T13:19:03.088Z,20.57
2018-02-16T13:24:34.029Z,18.87
2018-02-16T13:27:03.958Z,20.03
2018-02-16T13:29:46.333Z,19.00
2018-02-16T13:32:17.719Z,20.13
2018-02-16T13:34:47.853Z,19.27
2018-02-16T13:40:16.183Z,18.27
2018-02-16T13:46:12.240Z,13.90
2018-02-16T14:23:38.800Z,19.67
2018-02-16T14:26:17.678Z,18.90
2018-02-16T14:28:49.668Z,19.90
2018-02-16T14:31:29.388Z,20.33
2018-02-16T14:40:11.836Z,20.33
2018-02-16T14:42:54.854Z,19.67
2018-02-16T14:45:36.258Z,18.97
2018-02-16T14:48:06.666Z,19.20
2018-02-16T14:50:36.279Z,19.60
2018-02-16T14:53:38.513Z,19.23
2018-02-16T14:56:10.149Z,18.40
2018-02-16T14:58:42.783Z,18.63
2018-02-16T15:01:24.354Z,18.33
2018-02-16T15:03:54.577Z,18.67
2018-02-16T15:06:47.806Z,18.83
2018-02-16T15:09:17.675Z,18.53
2018-02-16T15:11:54.633Z,17.57
2018-02-16T15:14:24.355Z,18.43
2018-02-16T15:16:53.966Z,18.03
2018-02-16T15:19:26.053Z,19.10
2018-02-16T15:21:58.237Z,18.87
2018-02-16T15:24:46.034Z,18.77
2018-02-16T15:27:16.117Z,18.80
2018-02-16T15:29:46.610Z,18.07
2018-02-16T15:32:16.011Z,18.23
2018-02-16T15:34:52.298Z,19.73
2018-02-16T15:37:21.949Z,18.03
2018-02-16T15:39:51.569Z,19.63
2018-02-16T15:42:20.975Z,19.57
2018-02-16T15:44:50.880Z,20.40
2018-02-16T15:47:20.254Z,19.30
2018-02-16T15:53:18.416Z,19.20
2018-02-16T15:59:13.663Z,18.83
2018-02-16T16:01:53.501Z,19.53
2018-02-16T16:07:36.161Z,19.80
2018-02-16T16:10:13.489Z,19.30
2018-02-16T16:12:58.697Z,20.43
2018-02-16T16:15:49.979Z,20.43
2018-02-16T16:18:36.655Z,21.37
2018-02-16T16:24:40.758Z,21.47
2018-02-16T16:27:20.333Z,20.70
2018-02-16T16:33:29.569Z,21.67
2018-02-16T16:36:18.747Z,21.80
2018-02-16T16:39:42.714Z,20.53
2018-02-16T16:42:17.637Z,19.27
2018-02-16T16:44:50.060Z,21.13
2018-02-16T16:47:28.290Z,21.30
2018-02-16T16:57:07.533Z,20.53
2018-02-16T16:59:37.198Z,20.40
2018-02-16T17:04:47.756Z,21.10
2018-02-16T17:07:18.389Z,21.70
2018-02-16T17:09:47.856Z,23.93
2018-02-16T17:15:43.918Z,20.57
2018-02-16T17:22:13.277Z,22.20
2018-02-16T17:24:47.214Z,21.13
2018-02-16T17:27:18.596Z,23.40
2018-02-16T17:32:59.577Z,22.47
